sensor_id;sensor_type;location;lat;lon;timestamp;pressure;altitude;pressure_sealevel;temperature;humidity
30302;BME280;17111;52.130;5.028;2023-07-16T00:00:23;100846.38;;;25.52;41.77
30302;BME280;17111;52.130;5.028;2023-07-16T00:02:50;100852.03;;;25.51;41.55
30302;BME280;17111;52.130;5.028;2023-07-16T00:05:17;100845.97;;;25.49;41.46
30302;BME280;17111;52.130;5.028;2023-07-16T00:07:43;100854.31;;;25.47;41.72
30302;BME280;17111;52.130;5.028;2023-07-16T00:10:10;100852.63;;;25.46;41.42
30302;BME280;17111;52.130;5.028;2023-07-16T00:12:37;100848.25;;;25.45;41.78
30302;BME280;17111;52.130;5.028;2023-07-16T00:15:05;100853.03;;;25.43;41.54
30302;BME280;17111;52.130;5.028;2023-07-16T00:17:33;100852.19;;;25.43;41.67
30302;BME280;17111;52.130;5.028;2023-07-16T00:20:00;100851.56;;;25.41;41.52
30302;BME280;17111;52.130;5.028;2023-07-16T00:22:27;100847.38;;;25.38;41.34
30302;BME280;17111;52.130;5.028;2023-07-16T00:24:54;100859.28;;;25.37;41.33
30302;BME280;17111;52.130;5.028;2023-07-16T00:27:20;100857.78;;;25.34;41.47
30302;BME280;17111;52.130;5.028;2023-07-16T00:29:47;100856.31;;;25.32;41.30
30302;BME280;17111;52.130;5.028;2023-07-16T00:32:13;100857.38;;;25.31;40.76
30302;BME280;17111;52.130;5.028;2023-07-16T00:34:40;100856.75;;;25.29;41.18
30302;BME280;17111;52.130;5.028;2023-07-16T00:37:07;100863.41;;;25.26;40.84
30302;BME280;17111;52.130;5.028;2023-07-16T00:39:33;100859.19;;;25.24;40.86
30302;BME280;17111;52.130;5.028;2023-07-16T00:42:00;100859.41;;;25.22;40.66
30302;BME280;17111;52.130;5.028;2023-07-16T00:44:26;100856.25;;;25.19;41.21
30302;BME280;17111;52.130;5.028;2023-07-16T00:46:53;100870.03;;;25.17;41.14
30302;BME280;17111;52.130;5.028;2023-07-16T00:49:20;100864.78;;;25.16;41.09
30302;BME280;17111;52.130;5.028;2023-07-16T00:51:47;100867.91;;;25.13;41.26
30302;BME280;17111;52.130;5.028;2023-07-16T00:54:13;100867.06;;;25.12;40.94
30302;BME280;17111;52.130;5.028;2023-07-16T00:56:40;100854.75;;;25.09;41.22
30302;BME280;17111;52.130;5.028;2023-07-16T00:59:07;100867.50;;;25.09;40.99
30302;BME280;17111;52.130;5.028;2023-07-16T01:01:33;100862.22;;;25.07;41.18
30302;BME280;17111;52.130;5.028;2023-07-16T01:04:00;100865.13;;;25.06;41.22
30302;BME280;17111;52.130;5.028;2023-07-16T01:06:38;100865.31;;;25.04;41.17
30302;BME280;17111;52.130;5.028;2023-07-16T01:09:24;100869.06;;;25.03;41.07
30302;BME280;17111;52.130;5.028;2023-07-16T01:11:51;100875.34;;;25.04;41.22
30302;BME280;17111;52.130;5.028;2023-07-16T01:14:20;100875.34;;;25.04;40.88
30302;BME280;17111;52.130;5.028;2023-07-16T01:16:47;100868.44;;;25.01;41.06
30302;BME280;17111;52.130;5.028;2023-07-16T01:19:13;100862.19;;;25.01;40.90
30302;BME280;17111;52.130;5.028;2023-07-16T01:21:48;100863.41;;;24.98;41.12
30302;BME280;17111;52.130;5.028;2023-07-16T01:27:52;100870.50;;;24.93;41.36
30302;BME280;17111;52.130;5.028;2023-07-16T01:30:26;100862.13;;;24.94;41.30
30302;BME280;17111;52.130;5.028;2023-07-16T01:32:55;100865.25;;;24.91;41.07
30302;BME280;17111;52.130;5.028;2023-07-16T01:35:23;100863.97;;;24.87;41.13
30302;BME280;17111;52.130;5.028;2023-07-16T01:37:50;100865.00;;;24.86;41.03
30302;BME280;17111;52.130;5.028;2023-07-16T01:40:17;100862.69;;;24.83;41.37
30302;BME280;17111;52.130;5.028;2023-07-16T01:42:43;100871.88;;;24.82;41.10
30302;BME280;17111;52.130;5.028;2023-07-16T01:45:10;100869.34;;;24.80;41.03
30302;BME280;17111;52.130;5.028;2023-07-16T01:50:14;100869.53;;;24.79;41.59
30302;BME280;17111;52.130;5.028;2023-07-16T01:52:41;100859.91;;;24.76;41.48
30302;BME280;17111;52.130;5.028;2023-07-16T01:55:07;100866.38;;;24.75;41.45
30302;BME280;17111;52.130;5.028;2023-07-16T01:57:34;100876.41;;;24.75;41.13
30302;BME280;17111;52.130;5.028;2023-07-16T02:00:01;100877.44;;;24.74;41.57
30302;BME280;17111;52.130;5.028;2023-07-16T02:02:27;100876.41;;;24.75;41.60
30302;BME280;17111;52.130;5.028;2023-07-16T02:04:54;100866.78;;;24.72;41.69
30302;BME280;17111;52.130;5.028;2023-07-16T02:07:21;100874.06;;;24.72;41.60
30302;BME280;17111;52.130;5.028;2023-07-16T02:09:47;100868.03;;;24.70;41.81
30302;BME280;17111;52.130;5.028;2023-07-16T02:12:14;100871.78;;;24.69;41.62
30302;BME280;17111;52.130;5.028;2023-07-16T02:14:40;100877.19;;;24.69;41.77
30302;BME280;17111;52.130;5.028;2023-07-16T02:17:07;100873.84;;;24.67;41.43
30302;BME280;17111;52.130;5.028;2023-07-16T02:19:34;100873.22;;;24.65;41.80
30302;BME280;17111;52.130;5.028;2023-07-16T02:22:00;100866.91;;;24.64;41.52
30302;BME280;17111;52.130;5.028;2023-07-16T02:24:27;100873.38;;;24.63;41.92
30302;BME280;17111;52.130;5.028;2023-07-16T02:26:53;100871.72;;;24.62;41.49
30302;BME280;17111;52.130;5.028;2023-07-16T02:29:20;100873.38;;;24.63;41.86
30302;BME280;17111;52.130;5.028;2023-07-16T02:31:46;100874.63;;;24.60;41.85
30302;BME280;17111;52.130;5.028;2023-07-16T02:34:15;100877.34;;;24.60;41.86
30302;BME280;17111;52.130;5.028;2023-07-16T02:36:41;100872.09;;;24.59;42.09
30302;BME280;17111;52.130;5.028;2023-07-16T02:39:08;100872.31;;;24.57;41.59
30302;BME280;17111;52.130;5.028;2023-07-16T02:41:35;100876.91;;;24.57;41.96
30302;BME280;17111;52.130;5.028;2023-07-16T02:44:04;100871.66;;;24.55;42.39
30302;BME280;17111;52.130;5.028;2023-07-16T02:46:32;100871.88;;;24.54;42.10
30302;BME280;17111;52.130;5.028;2023-07-16T02:48:58;100875.41;;;24.54;42.49
30302;BME280;17111;52.130;5.028;2023-07-16T02:51:25;100872.91;;;24.53;41.84
30302;BME280;17111;52.130;5.028;2023-07-16T02:53:51;100866.66;;;24.52;41.74
30302;BME280;17111;52.130;5.028;2023-07-16T02:56:18;100874.13;;;24.50;42.16
30302;BME280;17111;52.130;5.028;2023-07-16T02:58:45;100882.25;;;24.50;42.37
30302;BME280;17111;52.130;5.028;2023-07-16T03:01:12;100880.59;;;24.49;41.92
30302;BME280;17111;52.130;5.028;2023-07-16T03:03:38;100879.94;;;24.47;42.43
30302;BME280;17111;52.130;5.028;2023-07-16T03:06:06;100875.56;;;24.46;42.34
30302;BME280;17111;52.130;5.028;2023-07-16T03:08:34;100879.28;;;24.45;42.58
30302;BME280;17111;52.130;5.028;2023-07-16T03:11:00;100889.31;;;24.45;42.52
30302;BME280;17111;52.130;5.028;2023-07-16T03:13:27;100887.44;;;24.45;42.21
30302;BME280;17111;52.130;5.028;2023-07-16T03:15:53;100874.25;;;24.42;42.46
30302;BME280;17111;52.130;5.028;2023-07-16T03:18:20;100877.19;;;24.41;42.37
30302;BME280;17111;52.130;5.028;2023-07-16T03:20:47;100881.72;;;24.40;42.27
30302;BME280;17111;52.130;5.028;2023-07-16T03:23:13;100888.19;;;24.39;42.48
30302;BME280;17111;52.130;5.028;2023-07-16T03:25:40;100887.34;;;24.38;42.90
30302;BME280;17111;52.130;5.028;2023-07-16T03:28:06;100884.81;;;24.37;42.45
30302;BME280;17111;52.130;5.028;2023-07-16T03:30:33;100890.25;;;24.37;42.80
30302;BME280;17111;52.130;5.028;2023-07-16T03:33:00;100889.41;;;24.36;42.41
30302;BME280;17111;52.130;5.028;2023-07-16T03:35:26;100885.00;;;24.35;42.70
30302;BME280;17111;52.130;5.028;2023-07-16T03:37:53;100893.13;;;24.35;42.22
30302;BME280;17111;52.130;5.028;2023-07-16T03:40:23;100903.34;;;24.33;42.84
30302;BME280;17111;52.130;5.028;2023-07-16T03:42:50;100915.22;;;24.32;42.85
30302;BME280;17111;52.130;5.028;2023-07-16T03:45:17;100914.56;;;24.30;42.24
30302;BME280;17111;52.130;5.028;2023-07-16T03:47:44;100913.72;;;24.30;42.82
30302;BME280;17111;52.130;5.028;2023-07-16T03:50:11;100921.00;;;24.29;42.57
30302;BME280;17111;52.130;5.028;2023-07-16T03:52:37;100940.13;;;24.28;42.47
30302;BME280;17111;52.130;5.028;2023-07-16T03:55:04;100933.06;;;24.27;42.24
30302;BME280;17111;52.130;5.028;2023-07-16T03:57:31;100927.00;;;24.25;42.22
30302;BME280;17111;52.130;5.028;2023-07-16T03:59:57;100929.72;;;24.25;42.59
30302;BME280;17111;52.130;5.028;2023-07-16T04:02:25;100935.13;;;24.25;42.85
30302;BME280;17111;52.130;5.028;2023-07-16T04:04:51;100935.31;;;24.23;42.58
30302;BME280;17111;52.130;5.028;2023-07-16T04:07:18;100937.19;;;24.23;42.90
30302;BME280;17111;52.130;5.028;2023-07-16T04:09:44;100931.97;;;24.21;42.67
30302;BME280;17111;52.130;5.028;2023-07-16T04:12:11;100947.19;;;24.22;42.68
30302;BME280;17111;52.130;5.028;2023-07-16T04:14:38;100948.22;;;24.21;42.67
30302;BME280;17111;52.130;5.028;2023-07-16T04:17:04;100945.69;;;24.20;42.35
30302;BME280;17111;52.130;5.028;2023-07-16T04:19:31;100951.09;;;24.20;42.68
30302;BME280;17111;52.130;5.028;2023-07-16T04:21:58;100941.31;;;24.19;42.58
30302;BME280;17111;52.130;5.028;2023-07-16T04:24:25;100945.06;;;24.18;42.52
30302;BME280;17111;52.130;5.028;2023-07-16T04:26:53;100947.75;;;24.18;42.52
30302;BME280;17111;52.130;5.028;2023-07-16T04:29:20;100954.22;;;24.17;42.54
30302;BME280;17111;52.130;5.028;2023-07-16T04:31:47;100950.00;;;24.14;42.60
30302;BME280;17111;52.130;5.028;2023-07-16T04:34:13;100944.78;;;24.12;42.53
30302;BME280;17111;52.130;5.028;2023-07-16T04:36:44;100955.63;;;24.12;42.40
30302;BME280;17111;52.130;5.028;2023-07-16T04:39:10;100950.22;;;24.12;42.93
30302;BME280;17111;52.130;5.028;2023-07-16T04:41:37;100958.50;;;24.11;42.44
30302;BME280;17111;52.130;5.028;2023-07-16T04:44:05;100955.81;;;24.11;42.58
30302;BME280;17111;52.130;5.028;2023-07-16T04:46:31;100959.53;;;24.10;42.95
30302;BME280;17111;52.130;5.028;2023-07-16T04:48:58;100959.53;;;24.10;42.67
30302;BME280;17111;52.130;5.028;2023-07-16T04:51:25;100953.28;;;24.09;42.35
30302;BME280;17111;52.130;5.028;2023-07-16T04:53:51;100964.13;;;24.09;42.67
30302;BME280;17111;52.130;5.028;2023-07-16T04:56:18;100956.00;;;24.09;42.52
30302;BME280;17111;52.130;5.028;2023-07-16T04:58:45;100959.53;;;24.10;42.84
30302;BME280;17111;52.130;5.028;2023-07-16T05:01:11;100973.72;;;24.12;43.07
30302;BME280;17111;52.130;5.028;2023-07-16T05:03:38;100971.00;;;24.12;42.71
30302;BME280;17111;52.130;5.028;2023-07-16T05:06:05;100977.09;;;24.14;42.55
30302;BME280;17111;52.130;5.028;2023-07-16T05:08:32;100975.22;;;24.14;42.24
30302;BME280;17111;52.130;5.028;2023-07-16T05:10:58;100984.84;;;24.17;42.84
30302;BME280;17111;52.130;5.028;2023-07-16T05:13:25;100980.25;;;24.18;42.79
30302;BME280;17111;52.130;5.028;2023-07-16T05:15:52;100980.06;;;24.19;42.33
30302;BME280;17111;52.130;5.028;2023-07-16T05:18:19;100979.88;;;24.21;42.59
30302;BME280;17111;52.130;5.028;2023-07-16T05:20:49;100981.75;;;24.20;42.53
30302;BME280;17111;52.130;5.028;2023-07-16T05:23:15;100983.44;;;24.21;42.52
30302;BME280;17111;52.130;5.028;2023-07-16T05:25:49;100995.72;;;24.24;41.59
30302;BME280;17111;52.130;5.028;2023-07-16T05:28:16;101000.31;;;24.23;41.61
30302;BME280;17111;52.130;5.028;2023-07-16T05:30:43;100998.06;;;24.27;42.20
30302;BME280;17111;52.130;5.028;2023-07-16T05:33:10;101003.47;;;24.27;41.73
30302;BME280;17111;52.130;5.028;2023-07-16T05:35:39;101001.59;;;24.27;41.97
30302;BME280;17111;52.130;5.028;2023-07-16T05:38:05;101004.16;;;24.29;41.50
30302;BME280;17111;52.130;5.028;2023-07-16T05:40:32;100998.53;;;24.30;41.88
30302;BME280;17111;52.130;5.028;2023-07-16T05:42:59;101002.91;;;24.31;41.72
30302;BME280;17111;52.130;5.028;2023-07-16T05:45:25;101006.28;;;24.33;41.82
30302;BME280;17111;52.130;5.028;2023-07-16T05:47:52;101000.66;;;24.35;41.68
30302;BME280;17111;52.130;5.028;2023-07-16T05:50:19;101006.91;;;24.35;41.62
30302;BME280;17111;52.130;5.028;2023-07-16T05:52:45;101013.16;;;24.36;41.20
30302;BME280;17111;52.130;5.028;2023-07-16T05:55:14;101012.31;;;24.35;41.01
30302;BME280;17111;52.130;5.028;2023-07-16T05:57:41;101014.03;;;24.36;40.78
30302;BME280;17111;52.130;5.028;2023-07-16T06:00:08;101024.88;;;24.36;40.88
30302;BME280;17111;52.130;5.028;2023-07-16T06:02:35;101026.91;;;24.34;40.77
30302;BME280;17111;52.130;5.028;2023-07-16T06:05:02;101025.03;;;24.35;41.24
30302;BME280;17111;52.130;5.028;2023-07-16T06:07:29;101031.50;;;24.34;40.86
30302;BME280;17111;52.130;5.028;2023-07-16T06:09:55;101019.81;;;24.33;41.19
30302;BME280;17111;52.130;5.028;2023-07-16T06:12:22;101017.13;;;24.33;41.34
30302;BME280;17111;52.130;5.028;2023-07-16T06:14:49;101016.91;;;24.35;40.89
30302;BME280;17111;52.130;5.028;2023-07-16T06:17:15;101026.72;;;24.36;41.27
30302;BME280;17111;52.130;5.028;2023-07-16T06:19:42;101028.41;;;24.37;40.85
30302;BME280;17111;52.130;5.028;2023-07-16T06:22:09;101041.97;;;24.37;40.91
30302;BME280;17111;52.130;5.028;2023-07-16T06:24:36;101036.53;;;24.37;41.57
30302;BME280;17111;52.130;5.028;2023-07-16T06:27:02;101035.72;;;24.36;41.01
30302;BME280;17111;52.130;5.028;2023-07-16T06:29:29;101043.84;;;24.36;41.38
30302;BME280;17111;52.130;5.028;2023-07-16T06:31:57;101038.59;;;24.35;40.99
30302;BME280;17111;52.130;5.028;2023-07-16T06:34:25;101058.59;;;24.34;41.33
30302;BME280;17111;52.130;5.028;2023-07-16T06:36:52;101046.06;;;24.33;40.86
30302;BME280;17111;52.130;5.028;2023-07-16T06:39:18;101055.22;;;24.32;41.57
30302;BME280;17111;52.130;5.028;2023-07-16T06:41:45;101057.91;;;24.32;40.88
30302;BME280;17111;52.130;5.028;2023-07-16T06:44:11;101060.63;;;24.32;41.37
30302;BME280;17111;52.130;5.028;2023-07-16T06:46:38;101071.66;;;24.30;41.04
30302;BME280;17111;52.130;5.028;2023-07-16T06:49:05;101077.09;;;24.30;41.16
30302;BME280;17111;52.130;5.028;2023-07-16T06:51:33;101078.97;;;24.30;41.17
30302;BME280;17111;52.130;5.028;2023-07-16T06:54:00;101075.59;;;24.28;41.46
30302;BME280;17111;52.130;5.028;2023-07-16T06:56:27;101085.41;;;24.29;41.72
30302;BME280;17111;52.130;5.028;2023-07-16T06:58:53;101077.28;;;24.29;41.56
30302;BME280;17111;52.130;5.028;2023-07-16T07:01:20;101088.13;;;24.29;41.20
30302;BME280;17111;52.130;5.028;2023-07-16T07:03:47;101088.28;;;24.27;41.39
30302;BME280;17111;52.130;5.028;2023-07-16T07:06:14;101090.00;;;24.28;41.74
30302;BME280;17111;52.130;5.028;2023-07-16T07:08:41;101089.13;;;24.28;41.32
30302;BME280;17111;52.130;5.028;2023-07-16T07:11:08;101091.00;;;24.27;41.85
30302;BME280;17111;52.130;5.028;2023-07-16T07:13:34;101083.72;;;24.28;41.95
30302;BME280;17111;52.130;5.028;2023-07-16T07:16:01;101086.41;;;24.28;42.06
30302;BME280;17111;52.130;5.028;2023-07-16T07:18:28;101088.28;;;24.27;41.79
30302;BME280;17111;52.130;5.028;2023-07-16T07:20:54;101101.66;;;24.29;42.10
30302;BME280;17111;52.130;5.028;2023-07-16T07:23:21;101115.22;;;24.29;42.29
30302;BME280;17111;52.130;5.028;2023-07-16T07:25:51;101108.97;;;24.28;42.12
30302;BME280;17111;52.130;5.028;2023-07-16T07:28:21;101115.22;;;24.29;42.27
30302;BME280;17111;52.130;5.028;2023-07-16T07:30:47;101117.91;;;24.29;42.47
30302;BME280;17111;52.130;5.028;2023-07-16T07:33:14;101114.19;;;24.30;42.17
30302;BME280;17111;52.130;5.028;2023-07-16T07:35:41;101123.34;;;24.29;42.47
30302;BME280;17111;52.130;5.028;2023-07-16T07:38:07;101123.34;;;24.29;42.56
30302;BME280;17111;52.130;5.028;2023-07-16T07:40:34;101139.75;;;24.27;42.27
30302;BME280;17111;52.130;5.028;2023-07-16T07:43:00;101134.91;;;24.23;42.16
30302;BME280;17111;52.130;5.028;2023-07-16T07:45:27;101145.47;;;24.18;42.43
30302;BME280;17111;52.130;5.028;2023-07-16T07:47:54;101141.09;;;24.17;42.88
30302;BME280;17111;52.130;5.028;2023-07-16T07:50:21;101133.97;;;24.16;43.14
30302;BME280;17111;52.130;5.028;2023-07-16T07:52:47;101131.09;;;24.17;42.95
30302;BME280;17111;52.130;5.028;2023-07-16T07:55:14;101148.19;;;24.18;43.19
30302;BME280;17111;52.130;5.028;2023-07-16T07:57:40;101141.94;;;24.17;43.05
30302;BME280;17111;52.130;5.028;2023-07-16T08:00:08;101139.22;;;24.17;43.43
30302;BME280;17111;52.130;5.028;2023-07-16T08:02:38;101145.47;;;24.18;43.47
30302;BME280;17111;52.130;5.028;2023-07-16T08:05:05;101138.38;;;24.17;42.97
30302;BME280;17111;52.130;5.028;2023-07-16T08:07:32;101141.94;;;24.17;43.34
30302;BME280;17111;52.130;5.028;2023-07-16T08:09:59;101157.34;;;24.17;42.65
30302;BME280;17111;52.130;5.028;2023-07-16T08:12:26;101162.09;;;24.14;43.12
30302;BME280;17111;52.130;5.028;2023-07-16T08:14:52;101160.22;;;24.15;43.11
30302;BME280;17111;52.130;5.028;2023-07-16T08:17:19;101151.72;;;24.18;43.59
30302;BME280;17111;52.130;5.028;2023-07-16T08:19:49;101157.41;;;24.23;42.81
30302;BME280;17111;52.130;5.028;2023-07-16T08:22:16;101150.59;;;24.27;42.73
30302;BME280;17111;52.130;5.028;2023-07-16T08:24:43;101165.28;;;24.33;42.45
30302;BME280;17111;52.130;5.028;2023-07-16T08:27:09;101167.59;;;24.36;42.78
30302;BME280;17111;52.130;5.028;2023-07-16T08:29:36;101176.22;;;24.40;42.85
30302;BME280;17111;52.130;5.028;2023-07-16T08:32:03;101175.00;;;24.42;42.86
30302;BME280;17111;52.130;5.028;2023-07-16T08:34:30;101172.94;;;24.44;43.10
30302;BME280;17111;52.130;5.028;2023-07-16T08:36:57;101176.31;;;24.46;42.55
30302;BME280;17111;52.130;5.028;2023-07-16T08:39:23;101175.13;;;24.49;42.90
30302;BME280;17111;52.130;5.028;2023-07-16T08:41:52;101183.03;;;24.50;43.18
30302;BME280;17111;52.130;5.028;2023-07-16T08:44:20;101177.25;;;24.53;42.70
30302;BME280;17111;52.130;5.028;2023-07-16T08:46:47;101181.44;;;24.56;43.17
30302;BME280;17111;52.130;5.028;2023-07-16T08:49:17;101188.34;;;24.58;43.57
30302;BME280;17111;52.130;5.028;2023-07-16T08:51:48;101187.78;;;24.63;44.17
30302;BME280;17111;52.130;5.028;2023-07-16T08:54:15;101195.75;;;24.65;44.92
30302;BME280;17111;52.130;5.028;2023-07-16T08:56:44;101181.63;;;24.69;44.42
30302;BME280;17111;52.130;5.028;2023-07-16T08:59:10;101194.97;;;24.71;45.67
30302;BME280;17111;52.130;5.028;2023-07-16T09:01:37;101194.59;;;24.74;45.71
30302;BME280;17111;52.130;5.028;2023-07-16T09:04:04;101192.53;;;24.76;45.61
30302;BME280;17111;52.130;5.028;2023-07-16T09:06:31;101200.28;;;24.79;46.16
30302;BME280;17111;52.130;5.028;2023-07-16T09:08:58;101200.09;;;24.80;46.68
30302;BME280;17111;52.130;5.028;2023-07-16T09:11:24;101202.25;;;24.85;46.37
30302;BME280;17111;52.130;5.028;2023-07-16T09:13:51;101199.34;;;24.86;47.06
30302;BME280;17111;52.130;5.028;2023-07-16T09:16:18;101202.53;;;24.90;46.76
30302;BME280;17111;52.130;5.028;2023-07-16T09:18:45;101201.31;;;24.93;47.20
30302;BME280;17111;52.130;5.028;2023-07-16T09:21:12;101204.44;;;24.96;47.43
30302;BME280;17111;52.130;5.028;2023-07-16T09:23:39;101210.34;;;25.00;47.42
30302;BME280;17111;52.130;5.028;2023-07-16T09:26:08;101209.34;;;25.01;46.76
30302;BME280;17111;52.130;5.028;2023-07-16T09:28:34;101208.91;;;25.04;47.04
30302;BME280;17111;52.130;5.028;2023-07-16T09:31:05;101198.91;;;25.04;46.99
30302;BME280;17111;52.130;5.028;2023-07-16T09:33:33;101210.41;;;25.06;46.70
30302;BME280;17111;52.130;5.028;2023-07-16T09:36:00;101222.09;;;25.07;46.16
30302;BME280;17111;52.130;5.028;2023-07-16T09:38:27;101214.81;;;25.07;46.39
30302;BME280;17111;52.130;5.028;2023-07-16T09:40:55;101216.47;;;25.08;46.21
30302;BME280;17111;52.130;5.028;2023-07-16T09:43:22;101223.44;;;25.11;46.17
30302;BME280;17111;52.130;5.028;2023-07-16T09:45:50;101220.53;;;25.13;45.64
30302;BME280;17111;52.130;5.028;2023-07-16T09:48:17;101234.09;;;25.13;45.43
30302;BME280;17111;52.130;5.028;2023-07-16T09:50:52;101236.81;;;25.13;45.77
30302;BME280;17111;52.130;5.028;2023-07-16T09:53:20;101234.75;;;25.15;45.23
30302;BME280;17111;52.130;5.028;2023-07-16T09:55:48;101237.25;;;25.16;45.55
30302;BME280;17111;52.130;5.028;2023-07-16T09:58:17;101241.84;;;25.16;45.31
30302;BME280;17111;52.130;5.028;2023-07-16T10:00:46;101245.22;;;25.18;45.82
30302;BME280;17111;52.130;5.028;2023-07-16T10:03:15;101236.72;;;25.21;45.54
30302;BME280;17111;52.130;5.028;2023-07-16T10:05:43;101246.53;;;25.22;45.53
30302;BME280;17111;52.130;5.028;2023-07-16T10:08:18;101248.19;;;25.23;45.46
30302;BME280;17111;52.130;5.028;2023-07-16T10:10:54;101268.69;;;25.25;45.69
30302;BME280;17111;52.130;5.028;2023-07-16T10:13:23;101251.16;;;25.28;45.48
30302;BME280;17111;52.130;5.028;2023-07-16T10:15:55;101259.97;;;25.30;45.26
30302;BME280;17111;52.130;5.028;2023-07-16T10:18:30;101256.22;;;25.31;44.98
30302;BME280;17111;52.130;5.028;2023-07-16T10:21:07;101260.44;;;25.33;45.24
30302;BME280;17111;52.130;5.028;2023-07-16T10:23:43;101268.56;;;25.33;44.93
30302;BME280;17111;52.130;5.028;2023-07-16T10:26:12;101269.22;;;25.35;45.28
30302;BME280;17111;52.130;5.028;2023-07-16T10:28:44;101260.91;;;25.37;45.20
30302;BME280;17111;52.130;5.028;2023-07-16T10:31:21;101273.41;;;25.38;45.24
30302;BME280;17111;52.130;5.028;2023-07-16T10:34:01;101278.00;;;25.38;44.59
30302;BME280;17111;52.130;5.028;2023-07-16T10:36:28;101272.38;;;25.39;44.51
30302;BME280;17111;52.130;5.028;2023-07-16T10:39:01;101273.41;;;25.38;44.47
30302;BME280;17111;52.130;5.028;2023-07-16T10:41:30;101274.25;;;25.39;44.22
30302;BME280;17111;52.130;5.028;2023-07-16T10:43:57;101282.19;;;25.40;44.32
30302;BME280;17111;52.130;5.028;2023-07-16T10:46:24;101277.59;;;25.41;44.14
30302;BME280;17111;52.130;5.028;2023-07-16T10:48:51;101267.63;;;25.41;44.43
30302;BME280;17111;52.130;5.028;2023-07-16T10:51:17;101294.34;;;25.44;44.13
30302;BME280;17111;52.130;5.028;2023-07-16T10:53:44;101273.28;;;25.46;44.23
30302;BME280;17111;52.130;5.028;2023-07-16T10:56:11;101280.03;;;25.50;44.22
30302;BME280;17111;52.130;5.028;2023-07-16T10:58:37;101288.41;;;25.55;44.25
30302;BME280;17111;52.130;5.028;2023-07-16T11:01:04;101280.72;;;25.59;44.15
30302;BME280;17111;52.130;5.028;2023-07-16T11:03:31;101302.91;;;25.63;44.11
30302;BME280;17111;52.130;5.028;2023-07-16T11:05:57;101290.84;;;25.65;44.14
30302;BME280;17111;52.130;5.028;2023-07-16T11:08:25;101307.97;;;25.66;44.00
30302;BME280;17111;52.130;5.028;2023-07-16T11:10:57;101299.41;;;25.69;44.19
30302;BME280;17111;52.130;5.028;2023-07-16T11:13:29;101316.34;;;25.71;44.15
30302;BME280;17111;52.130;5.028;2023-07-16T11:15:55;101304.28;;;25.73;44.05
30302;BME280;17111;52.130;5.028;2023-07-16T11:18:23;101297.59;;;25.76;44.05
30302;BME280;17111;52.130;5.028;2023-07-16T11:20:53;101303.53;;;25.79;44.03
30302;BME280;17111;52.130;5.028;2023-07-16T11:23:20;101303.97;;;25.83;43.93
30302;BME280;17111;52.130;5.028;2023-07-16T11:25:49;101300.22;;;25.84;43.49
30302;BME280;17111;52.130;5.028;2023-07-16T11:28:16;101309.88;;;25.87;43.63
30302;BME280;17111;52.130;5.028;2023-07-16T11:30:43;101297.97;;;25.88;43.51
30302;BME280;17111;52.130;5.028;2023-07-16T11:33:12;101309.47;;;25.90;43.40
30302;BME280;17111;52.130;5.028;2023-07-16T11:35:40;101314.50;;;25.93;43.65
30302;BME280;17111;52.130;5.028;2023-07-16T11:38:07;101312.44;;;25.95;43.38
30302;BME280;17111;52.130;5.028;2023-07-16T11:40:35;101311.22;;;25.97;43.51
30302;BME280;17111;52.130;5.028;2023-07-16T11:43:09;101317.28;;;25.99;43.54
30302;BME280;17111;52.130;5.028;2023-07-16T11:45:36;101314.19;;;26.02;43.68
30302;BME280;17111;52.130;5.028;2023-07-16T11:48:04;101331.13;;;26.04;43.64
30302;BME280;17111;52.130;5.028;2023-07-16T11:50:31;101330.94;;;26.06;43.48
30302;BME280;17111;52.130;5.028;2023-07-16T11:53:01;101325.09;;;26.09;43.80
30302;BME280;17111;52.130;5.028;2023-07-16T11:55:28;101314.88;;;26.11;43.14
30302;BME280;17111;52.130;5.028;2023-07-16T11:57:54;101313.66;;;26.14;43.29
30302;BME280;17111;52.130;5.028;2023-07-16T12:00:23;101328.94;;;26.15;43.34
30302;BME280;17111;52.130;5.028;2023-07-16T12:02:50;101341.47;;;26.16;43.35
30302;BME280;17111;52.130;5.028;2023-07-16T12:05:20;101318.69;;;26.17;43.54
30302;BME280;17111;52.130;5.028;2023-07-16T12:07:56;101322.28;;;26.17;43.53
30302;BME280;17111;52.130;5.028;2023-07-16T12:10:22;101315.59;;;26.20;43.37
30302;BME280;17111;52.130;5.028;2023-07-16T12:12:49;101314.53;;;26.21;43.30
30302;BME280;17111;52.130;5.028;2023-07-16T12:15:16;101323.56;;;26.21;43.72
30302;BME280;17111;52.130;5.028;2023-07-16T12:17:42;101337.78;;;26.23;43.66
30302;BME280;17111;52.130;5.028;2023-07-16T12:20:09;101332.13;;;26.25;43.43
30302;BME280;17111;52.130;5.028;2023-07-16T12:22:36;101354.91;;;26.24;43.63
30302;BME280;17111;52.130;5.028;2023-07-16T12:25:03;101336.94;;;26.23;43.74
30302;BME280;17111;52.130;5.028;2023-07-16T12:27:30;101346.13;;;26.22;43.38
30302;BME280;17111;52.130;5.028;2023-07-16T12:29:57;101357.84;;;26.22;43.46
30302;BME280;17111;52.130;5.028;2023-07-16T12:32:23;101359.91;;;26.20;43.60
30302;BME280;17111;52.130;5.028;2023-07-16T12:34:50;101349.03;;;26.20;43.99
30302;BME280;17111;52.130;5.028;2023-07-16T12:37:17;101356.16;;;26.21;43.51
30302;BME280;17111;52.130;5.028;2023-07-16T12:39:44;101350.06;;;26.19;43.69
30302;BME280;17111;52.130;5.028;2023-07-16T12:42:10;101357.38;;;26.19;43.40
30302;BME280;17111;52.130;5.028;2023-07-16T12:44:37;101351.13;;;26.18;43.51
30302;BME280;17111;52.130;5.028;2023-07-16T12:47:04;101381.84;;;26.19;43.45
30302;BME280;17111;52.130;5.028;2023-07-16T12:49:31;101370.13;;;26.18;43.28
30302;BME280;17111;52.130;5.028;2023-07-16T12:51:58;101362.81;;;26.19;43.10
30302;BME280;17111;52.130;5.028;2023-07-16T12:54:24;101363.66;;;26.19;43.10
30302;BME280;17111;52.130;5.028;2023-07-16T12:56:51;101361.97;;;26.18;43.01